Time;durP1;ratioP1;P1;durP2;ratioP2;P2;SDS_P1;SDS_P2;PMS_P1;PMS_P2;Temp;Humidity;BMP_temperature;BMP_pressure;BME280_temperature;BME280_humidity;BME280_pressure;Samples;Min_cycle;Max_cycle;Signal;HPM_P1;HPM_P2
2021/05/02 00:01:03;;;;;;;2.22;1.38;;;18.80;35.70;;;;;;5095280;28;20028;-64
2021/05/02 00:03:29;;;;;;;4.18;1.75;;;18.80;35.70;;;;;;5095403;28;20391;-63
2021/05/02 00:05:55;;;;;;;2.83;1.20;;;18.80;35.70;;;;;;5095495;28;20491;-63
2021/05/02 00:08:20;;;;;;;1.88;1.17;;;18.80;35.70;;;;;;5095502;28;20024;-64
2021/05/02 00:10:46;;;;;;;2.35;1.30;;;18.80;35.70;;;;;;5095027;28;20442;-63
2021/05/02 00:13:12;;;;;;;2.78;1.48;;;18.80;35.80;;;;;;5095145;28;20173;-65
2021/05/02 00:15:37;;;;;;;3.50;1.42;;;18.80;35.70;;;;;;5095152;28;20024;-63
2021/05/02 00:18:03;;;;;;;3.20;1.60;;;18.80;35.80;;;;;;5094699;28;20024;-64
2021/05/02 00:20:29;;;;;;;3.28;1.52;;;18.80;35.80;;;;;;5095337;28;20032;-63
2021/05/02 00:22:58;;;;;;;3.13;1.60;;;18.80;35.80;;;;;;5094585;28;20518;-63
2021/05/02 00:25:27;;;;;;;3.55;1.52;;;18.80;35.80;;;;;;5094926;28;20024;-63
2021/05/02 00:27:53;;;;;;;2.30;1.25;;;18.80;35.80;;;;;;5098625;28;20020;-63
2021/05/02 00:30:21;;;;;;;2.92;1.50;;;18.70;35.80;;;;;;5095305;28;20047;-63
2021/05/02 00:32:50;;;;;;;2.33;1.30;;;18.70;35.80;;;;;;5094795;28;20379;-63
2021/05/02 00:35:17;;;;;;;3.75;1.75;;;18.70;35.80;;;;;;5094832;28;20051;-64
2021/05/02 00:37:43;;;;;;;3.25;1.25;;;18.70;35.80;;;;;;5094631;28;20028;-63
2021/05/02 00:40:14;;;;;;;3.03;1.38;;;18.70;35.80;;;;;;5094295;28;20040;-63
2021/05/02 00:42:47;;;;;;;2.58;1.30;;;18.70;35.90;;;;;;5094956;28;20505;-64
2021/05/02 00:45:20;;;;;;;3.42;1.30;;;18.70;35.90;;;;;;5094541;28;20066;-63
2021/05/02 00:47:52;;;;;;;2.90;1.20;;;18.70;35.90;;;;;;5094902;28;20048;-63
2021/05/02 00:50:21;;;;;;;4.22;1.75;;;18.70;35.90;;;;;;5098650;28;20063;-67
2021/05/02 00:52:47;;;;;;;3.47;1.33;;;18.70;35.90;;;;;;5104920;28;20376;-66
2021/05/02 00:55:15;;;;;;;2.33;1.10;;;18.70;35.90;;;;;;5104745;28;20024;-64
2021/05/02 00:57:53;;;;;;;3.08;1.50;;;18.60;35.90;;;;;;5104760;28;20123;-64
2021/05/02 01:00:20;;;;;;;3.33;1.40;;;18.60;35.90;;;;;;5106919;28;20080;-64
2021/05/02 01:02:47;;;;;;;3.63;1.20;;;18.60;35.90;;;;;;5104376;28;20032;-64
2021/05/02 01:05:13;;;;;;;2.65;1.23;;;18.60;36.00;;;;;;5104090;28;20055;-65
2021/05/02 01:07:43;;;;;;;2.50;1.35;;;18.60;36.00;;;;;;5101705;28;20039;-65
2021/05/02 01:10:18;;;;;;;2.65;1.20;;;18.60;36.00;;;;;;5093875;28;20167;-65
2021/05/02 01:12:49;;;;;;;3.17;1.55;;;18.60;36.00;;;;;;5094432;28;20024;-65
2021/05/02 01:15:22;;;;;;;2.58;1.20;;;18.60;36.00;;;;;;5094291;28;20064;-65
2021/05/02 01:18:08;;;;;;;2.65;1.20;;;18.60;36.00;;;;;;5093778;28;20437;-65
2021/05/02 01:20:36;;;;;;;3.42;1.33;;;18.50;36.00;;;;;;5094612;28;20475;-65
2021/05/02 01:23:08;;;;;;;2.97;1.50;;;18.60;36.00;;;;;;5093820;28;20488;-65
2021/05/02 01:25:35;;;;;;;3.28;1.35;;;18.50;36.10;;;;;;5094741;28;20024;-64
2021/05/02 01:28:02;;;;;;;4.15;1.48;;;18.50;36.10;;;;;;5093921;28;20467;-64
2021/05/02 01:30:28;;;;;;;3.25;1.52;;;18.50;36.10;;;;;;5094036;28;20039;-63
2021/05/02 01:32:54;;;;;;;2.28;1.30;;;18.50;36.10;;;;;;5092578;28;20029;-63
2021/05/02 01:35:21;;;;;;;2.78;1.13;;;18.50;36.20;;;;;;5093116;28;20031;-63
2021/05/02 01:37:49;;;;;;;2.63;1.30;;;18.50;36.20;;;;;;5093806;28;20023;-64
2021/05/02 01:40:16;;;;;;;2.90;1.20;;;18.50;36.10;;;;;;5093904;28;20115;-63
2021/05/02 01:42:41;;;;;;;2.40;1.25;;;18.50;36.20;;;;;;5093935;28;20031;-65
2021/05/02 01:45:09;;;;;;;2.05;1.20;;;18.40;36.20;;;;;;5094190;28;20028;-64
2021/05/02 01:47:38;;;;;;;2.80;1.48;;;18.50;36.20;;;;;;5092352;28;20024;-65
2021/05/02 01:50:08;;;;;;;3.92;1.40;;;18.50;36.20;;;;;;5093610;28;20039;-64
2021/05/02 01:52:39;;;;;;;2.95;1.33;;;18.40;36.30;;;;;;5093922;28;20531;-64
2021/05/02 01:55:06;;;;;;;2.58;1.30;;;18.40;36.30;;;;;;5093763;28;20032;-65
2021/05/02 01:57:33;;;;;;;3.42;1.30;;;18.40;36.30;;;;;;5093399;28;20024;-65
2021/05/02 02:00:10;;;;;;;1.50;0.98;;;18.40;36.30;;;;;;5093463;28;20048;-65
2021/05/02 02:02:37;;;;;;;2.65;1.25;;;18.40;36.30;;;;;;5093411;28;20531;-65
2021/05/02 02:05:03;;;;;;;3.35;1.67;;;18.40;36.30;;;;;;5093614;28;20112;-64
2021/05/02 02:07:30;;;;;;;2.63;1.30;;;18.40;36.30;;;;;;5092245;28;20107;-65
2021/05/02 02:09:56;;;;;;;3.00;1.38;;;18.40;36.30;;;;;;5093003;28;20032;-64
2021/05/02 02:12:23;;;;;;;2.53;1.15;;;18.40;36.30;;;;;;5093214;28;20036;-64
2021/05/02 02:14:50;;;;;;;3.17;1.35;;;18.40;36.30;;;;;;5093433;28;20039;-64
2021/05/02 02:17:18;;;;;;;2.75;1.13;;;18.40;36.30;;;;;;5091993;28;20054;-64
2021/05/02 02:19:44;;;;;;;3.67;1.45;;;18.30;36.40;;;;;;5093412;28;20024;-64
2021/05/02 02:22:11;;;;;;;2.80;1.30;;;18.40;36.40;;;;;;5093068;28;20031;-65
2021/05/02 02:24:46;;;;;;;3.10;1.23;;;18.30;36.40;;;;;;5093435;28;20036;-64
2021/05/02 02:27:13;;;;;;;2.58;1.30;;;18.30;36.40;;;;;;5093143;28;20020;-64
2021/05/02 02:29:48;;;;;;;2.97;1.33;;;18.30;36.40;;;;;;5093608;28;20032;-64
2021/05/02 02:32:16;;;;;;;2.10;1.10;;;18.30;36.40;;;;;;5093434;28;20036;-64
2021/05/02 02:34:47;;;;;;;3.40;1.33;;;18.30;36.50;;;;;;5093500;28;20036;-64
2021/05/02 02:37:18;;;;;;;3.40;1.48;;;18.30;36.50;;;;;;5093382;28;20024;-64
2021/05/02 02:39:50;;;;;;;2.88;1.30;;;18.30;36.50;;;;;;5092905;28;20024;-64
2021/05/02 02:42:17;;;;;;;2.75;1.40;;;18.30;36.50;;;;;;5093120;28;20016;-64
2021/05/02 02:44:53;;;;;;;3.60;1.30;;;18.30;36.50;;;;;;5091962;28;20384;-64
2021/05/02 02:47:25;;;;;;;3.63;1.15;;;18.30;36.50;;;;;;5096717;28;20028;-64
2021/05/02 02:49:56;;;;;;;3.65;1.15;;;18.20;36.50;;;;;;5095253;28;20055;-64
2021/05/02 02:52:24;;;;;;;3.78;1.50;;;18.20;36.50;;;;;;5096868;28;20059;-64
2021/05/02 02:55:04;;;;;;;3.20;1.25;;;18.20;36.50;;;;;;5095698;28;20032;-64
2021/05/02 02:58:00;;;;;;;3.13;1.00;;;18.20;36.50;;;;;;5097044;28;20063;-64
2021/05/02 03:00:27;;;;;;;;;;;18.20;36.60;;;;;;5097232;28;20026;-64
2021/05/02 03:03:04;;;;;;;3.42;1.40;;;18.20;36.50;;;;;;5096587;28;20413;-64
2021/05/02 03:05:32;;;;;;;3.15;1.58;;;18.20;36.60;;;;;;5097134;28;20021;-65
2021/05/02 03:08:02;;;;;;;2.25;1.20;;;18.20;36.60;;;;;;5096427;28;20356;-64
2021/05/02 03:10:28;;;;;;;3.40;1.45;;;18.20;36.60;;;;;;5096552;28;20039;-64
2021/05/02 03:12:55;;;;;;;2.78;1.38;;;18.20;36.60;;;;;;5103348;28;20046;-64
2021/05/02 03:15:22;;;;;;;3.30;1.45;;;18.20;36.60;;;;;;5097227;28;20020;-64
2021/05/02 03:18:04;;;;;;;2.75;1.27;;;18.20;36.60;;;;;;5096903;28;20032;-65
2021/05/02 03:20:40;;;;;;;1.83;1.02;;;18.20;36.60;;;;;;5096410;28;20115;-64
2021/05/02 03:23:10;;;;;;;1.83;1.10;;;18.20;36.60;;;;;;5096188;28;20051;-64
2021/05/02 03:25:41;;;;;;;2.15;0.98;;;18.20;36.60;;;;;;5096330;28;20476;-67
2021/05/02 03:28:08;;;;;;;2.38;1.10;;;18.20;36.60;;;;;;5096206;28;20016;-65
2021/05/02 03:30:34;;;;;;;2.58;1.20;;;18.20;36.60;;;;;;5096039;28;20104;-65
2021/05/02 03:33:04;;;;;;;3.20;1.33;;;18.20;36.60;;;;;;5094483;28;20493;-65
2021/05/02 03:35:33;;;;;;;3.00;1.10;;;18.20;36.60;;;;;;5096082;28;20023;-65
2021/05/02 03:38:10;;;;;;;2.38;1.20;;;18.20;36.60;;;;;;5100459;28;20016;-65
2021/05/02 03:40:37;;;;;;;3.83;1.40;;;18.20;36.60;;;;;;5095971;28;20020;-65
2021/05/02 03:43:05;;;;;;;2.88;1.27;;;18.10;36.60;;;;;;5095621;28;20099;-65
2021/05/02 03:45:30;;;;;;;2.08;1.05;;;18.10;36.60;;;;;;5095881;28;20140;-65
2021/05/02 03:47:56;;;;;;;3.20;1.60;;;18.10;36.60;;;;;;5095401;28;20484;-64
2021/05/02 03:50:21;;;;;;;2.17;1.10;;;18.10;36.60;;;;;;5095451;28;20036;-64
2021/05/02 03:52:47;;;;;;;2.17;1.10;;;18.10;36.70;;;;;;5095900;28;20490;-65
2021/05/02 03:55:12;;;;;;;2.25;1.00;;;18.20;36.60;;;;;;5095613;28;20028;-65
2021/05/02 03:57:38;;;;;;;3.90;1.17;;;18.10;36.70;;;;;;5094886;28;20028;-65
2021/05/02 04:00:04;;;;;;;2.22;1.08;;;18.10;36.70;;;;;;5095947;28;20480;-65
2021/05/02 04:02:30;;;;;;;1.98;1.10;;;18.10;36.60;;;;;;5095644;28;20031;-65
2021/05/02 04:04:55;;;;;;;2.28;1.15;;;18.10;36.60;;;;;;5095272;28;20020;-65
2021/05/02 04:07:21;;;;;;;2.35;1.00;;;18.20;36.60;;;;;;5095841;28;20103;-64
2021/05/02 04:09:47;;;;;;;3.17;1.00;;;18.10;36.60;;;;;;5095296;28;20082;-65
2021/05/02 04:12:13;;;;;;;3.38;1.33;;;18.10;36.60;;;;;;5095265;28;20020;-65
2021/05/02 04:14:39;;;;;;;2.92;1.23;;;18.20;36.50;;;;;;5094772;28;20028;-65
2021/05/02 04:17:08;;;;;;;2.28;0.95;;;18.20;36.50;;;;;;5095357;28;20028;-65
2021/05/02 04:19:35;;;;;;;2.17;1.15;;;18.20;36.50;;;;;;5095140;28;20555;-64
2021/05/02 04:22:01;;;;;;;3.92;1.38;;;18.20;36.50;;;;;;5094771;28;20502;-65
2021/05/02 04:24:27;;;;;;;2.90;1.25;;;18.20;36.50;;;;;;5094746;28;20028;-65
2021/05/02 04:26:55;;;;;;;3.13;1.50;;;18.20;36.50;;;;;;5095281;28;20024;-65
2021/05/02 04:29:25;;;;;;;3.00;1.30;;;18.20;36.50;;;;;;5094876;28;20382;-64
2021/05/02 04:31:51;;;;;;;3.33;1.35;;;18.30;36.50;;;;;;5095012;28;20590;-65
2021/05/02 04:34:18;;;;;;;2.88;1.10;;;18.30;36.50;;;;;;5094861;28;20031;-65
2021/05/02 04:36:44;;;;;;;3.22;1.40;;;18.30;36.50;;;;;;5094489;28;20069;-65
2021/05/02 04:39:10;;;;;;;2.85;1.00;;;18.30;36.40;;;;;;5094914;28;20422;-65
2021/05/02 04:41:36;;;;;;;4.03;1.02;;;18.30;36.40;;;;;;5094804;28;20046;-65
2021/05/02 04:44:02;;;;;;;2.17;1.00;;;18.30;36.40;;;;;;5094944;28;20096;-65
2021/05/02 04:46:28;;;;;;;4.47;1.38;;;18.30;36.40;;;;;;5094767;28;20023;-64
2021/05/02 04:48:53;;;;;;;2.63;1.10;;;18.30;36.40;;;;;;5093117;28;20024;-64
2021/05/02 04:51:20;;;;;;;1.98;1.00;;;18.30;36.40;;;;;;5094900;28;20391;-65
2021/05/02 04:53:46;;;;;;;2.38;1.02;;;18.30;36.40;;;;;;5094488;28;20129;-65
2021/05/02 04:56:13;;;;;;;4.03;1.30;;;18.30;36.40;;;;;;5094361;28;20028;-65
2021/05/02 04:58:38;;;;;;;3.47;1.35;;;18.30;36.40;;;;;;5094431;28;20486;-65
2021/05/02 05:01:04;;;;;;;1.88;0.93;;;18.30;36.40;;;;;;5094241;28;20024;-65
2021/05/02 05:03:31;;;;;;;3.00;1.33;;;18.30;36.40;;;;;;5094014;28;20468;-65
2021/05/02 05:05:57;;;;;;;2.50;1.05;;;18.30;36.40;;;;;;5094178;28;20059;-65
2021/05/02 05:08:22;;;;;;;1.70;1.10;;;18.30;36.40;;;;;;5092857;28;20048;-65
2021/05/02 05:10:48;;;;;;;2.20;1.20;;;18.30;36.40;;;;;;5093945;28;20047;-65
2021/05/02 05:13:13;;;;;;;2.45;1.08;;;18.40;36.40;;;;;;5093934;28;20043;-65
2021/05/02 05:15:39;;;;;;;2.17;0.93;;;18.30;36.40;;;;;;5093834;28;20514;-65
2021/05/02 05:18:04;;;;;;;2.63;1.00;;;18.40;36.30;;;;;;5093733;28;20020;-65
2021/05/02 05:20:30;;;;;;;2.83;1.10;;;18.30;36.40;;;;;;5093025;28;20468;-65
2021/05/02 05:22:55;;;;;;;1.55;0.82;;;18.40;36.40;;;;;;5093884;28;20519;-65
2021/05/02 05:25:21;;;;;;;1.75;0.85;;;18.40;36.40;;;;;;5094336;28;20070;-65
2021/05/02 05:27:47;;;;;;;3.58;1.25;;;18.40;36.40;;;;;;5094166;28;20043;-65
2021/05/02 05:30:13;;;;;;;2.45;1.13;;;18.40;36.30;;;;;;5093804;28;20138;-64
2021/05/02 05:32:38;;;;;;;2.15;1.08;;;18.30;36.40;;;;;;5093704;28;20128;-65
2021/05/02 05:35:05;;;;;;;1.80;0.98;;;18.40;36.40;;;;;;5093710;28;20084;-65
2021/05/02 05:37:31;;;;;;;3.28;1.23;;;18.40;36.40;;;;;;5093947;28;20031;-65
2021/05/02 05:39:56;;;;;;;1.98;1.05;;;18.40;36.40;;;;;;5093710;28;20016;-65
2021/05/02 05:42:22;;;;;;;2.65;1.00;;;18.40;36.40;;;;;;5093642;28;20020;-65
2021/05/02 05:44:48;;;;;;;2.88;1.60;;;18.40;36.40;;;;;;5093770;28;20533;-64
2021/05/02 05:47:13;;;;;;;2.10;1.00;;;18.40;36.30;;;;;;5093648;28;20021;-65
2021/05/02 05:49:40;;;;;;;2.03;1.05;;;18.40;36.40;;;;;;5093614;28;20093;-65
2021/05/02 05:52:08;;;;;;;1.73;1.00;;;18.40;36.30;;;;;;5093769;28;20028;-65
2021/05/02 05:54:35;;;;;;;2.22;1.10;;;18.40;36.40;;;;;;5093415;28;20020;-65
2021/05/02 05:57:00;;;;;;;2.47;1.00;;;18.40;36.40;;;;;;5093695;28;20039;-64
2021/05/02 05:59:26;;;;;;;2.88;0.95;;;18.40;36.40;;;;;;5093527;28;20032;-64
2021/05/02 06:01:52;;;;;;;2.15;0.88;;;18.40;36.40;;;;;;5093387;28;20081;-65
2021/05/02 06:04:17;;;;;;;1.95;0.98;;;18.40;36.30;;;;;;5093336;28;20487;-64
2021/05/02 06:06:43;;;;;;;1.63;0.98;;;18.40;36.40;;;;;;5093476;28;20031;-65
2021/05/02 06:09:08;;;;;;;2.33;0.88;;;18.50;36.30;;;;;;5093472;28;20048;-64
2021/05/02 06:11:36;;;;;;;1.60;0.80;;;18.40;36.30;;;;;;5093348;28;20020;-65
2021/05/02 06:14:02;;;;;;;1.73;0.80;;;18.50;36.30;;;;;;5093519;28;20101;-65
2021/05/02 06:16:28;;;;;;;3.15;1.08;;;18.50;36.30;;;;;;5093904;28;20519;-65
2021/05/02 06:18:55;;;;;;;2.17;0.93;;;18.50;36.30;;;;;;5093594;28;20052;-64
2021/05/02 06:21:21;;;;;;;3.22;0.95;;;18.50;36.30;;;;;;5096002;28;20089;-64
2021/05/02 06:23:48;;;;;;;2.30;1.08;;;18.50;36.30;;;;;;5095860;28;20051;-65
2021/05/02 06:26:16;;;;;;;2.22;0.98;;;18.50;36.30;;;;;;5097397;28;20028;-65
2021/05/02 06:28:42;;;;;;;2.35;1.00;;;18.50;36.30;;;;;;5097129;28;20017;-65
2021/05/02 06:31:08;;;;;;;2.53;1.00;;;18.50;36.20;;;;;;5097006;28;20433;-65
2021/05/02 06:33:35;;;;;;;2.45;0.98;;;18.50;36.30;;;;;;5095649;28;20047;-64
2021/05/02 06:36:01;;;;;;;2.20;0.90;;;18.50;36.30;;;;;;5097076;28;20024;-65
2021/05/02 06:38:26;;;;;;;1.98;0.93;;;18.50;36.20;;;;;;5095841;28;20031;-65
2021/05/02 06:40:52;;;;;;;3.15;0.93;;;18.60;36.20;;;;;;5097208;28;20540;-65
2021/05/02 06:43:17;;;;;;;2.58;1.08;;;18.60;36.20;;;;;;5097001;28;20028;-65
2021/05/02 06:45:43;;;;;;;2.97;1.10;;;18.60;36.20;;;;;;5101599;28;20079;-65
2021/05/02 06:48:09;;;;;;;1.38;0.90;;;18.60;36.20;;;;;;5097477;28;20036;-65
2021/05/02 06:50:35;;;;;;;1.38;0.80;;;18.60;36.20;;;;;;5096779;28;20078;-64
2021/05/02 06:53:00;;;;;;;2.65;1.10;;;18.60;36.20;;;;;;5096962;28;20020;-65
2021/05/02 06:55:26;;;;;;;1.92;1.00;;;18.60;36.20;;;;;;5097333;28;20085;-65
2021/05/02 06:57:51;;;;;;;2.95;0.90;;;18.60;36.20;;;;;;5096681;28;20417;-65
2021/05/02 07:00:18;;;;;;;3.95;1.02;;;18.70;36.20;;;;;;5096782;28;20095;-66
2021/05/02 07:02:43;;;;;;;2.40;0.90;;;18.60;36.20;;;;;;5096781;28;20027;-65
2021/05/02 07:05:09;;;;;;;2.17;0.98;;;18.70;36.10;;;;;;5096694;28;20032;-64
2021/05/02 07:07:35;;;;;;;2.50;0.85;;;18.70;36.10;;;;;;5096891;28;20035;-65
2021/05/02 07:10:00;;;;;;;2.08;0.90;;;18.70;36.10;;;;;;5096406;28;20376;-65
2021/05/02 07:12:26;;;;;;;3.08;1.10;;;18.70;36.10;;;;;;5096731;28;20444;-65
2021/05/02 07:14:52;;;;;;;2.50;1.02;;;18.70;36.10;;;;;;5096534;28;20024;-65
2021/05/02 07:17:18;;;;;;;2.65;1.05;;;18.70;36.00;;;;;;5096414;28;20032;-65
2021/05/02 07:19:43;;;;;;;2.83;0.98;;;18.80;36.00;;;;;;5096903;28;20465;-65
2021/05/02 07:22:09;;;;;;;2.70;0.88;;;18.80;36.00;;;;;;5097306;28;20110;-65
2021/05/02 07:24:35;;;;;;;1.90;0.80;;;18.80;35.90;;;;;;5102090;28;20452;-66
2021/05/02 07:27:00;;;;;;;2.35;0.82;;;18.90;35.90;;;;;;5106338;28;20028;-65
2021/05/02 07:29:26;;;;;;;1.50;0.63;;;18.90;35.90;;;;;;5106679;28;20491;-69
2021/05/02 07:31:51;;;;;;;2.70;1.15;;;18.90;35.90;;;;;;5104709;28;20521;-67
2021/05/02 07:34:18;;;;;;;2.30;1.25;;;18.90;35.90;;;;;;5103890;28;20051;-65
2021/05/02 07:36:45;;;;;;;3.50;1.00;;;18.90;35.90;;;;;;5099571;28;20056;-65
2021/05/02 07:39:10;;;;;;;3.20;1.13;;;18.90;35.80;;;;;;5113396;28;20034;-65
2021/05/02 07:41:36;;;;;;;2.05;0.82;;;19.00;35.80;;;;;;5102150;28;20119;-65
2021/05/02 07:44:02;;;;;;;2.72;0.93;;;19.00;35.80;;;;;;5099203;28;20034;-65
2021/05/02 07:46:28;;;;;;;2.47;0.85;;;19.00;35.70;;;;;;5097787;28;20032;-65
2021/05/02 07:48:53;;;;;;;3.40;0.90;;;19.00;35.80;;;;;;5095839;28;20375;-65
2021/05/02 07:51:19;;;;;;;3.45;0.93;;;18.90;35.80;;;;;;5095747;28;20395;-65
2021/05/02 07:53:44;;;;;;;1.20;0.70;;;19.00;35.80;;;;;;5095823;28;20460;-64
2021/05/02 07:56:10;;;;;;;2.20;0.95;;;19.00;35.80;;;;;;5095668;28;20035;-65
2021/05/02 07:58:36;;;;;;;3.63;0.98;;;19.00;35.80;;;;;;5095447;28;20560;-65
2021/05/02 08:01:01;;;;;;;1.15;0.70;;;19.00;35.80;;;;;;5095745;28;20032;-65
2021/05/02 08:03:27;;;;;;;2.00;0.80;;;19.00;35.80;;;;;;5095786;28;20062;-64
2021/05/02 08:05:52;;;;;;;2.47;1.20;;;19.00;35.80;;;;;;5095377;28;20035;-64
2021/05/02 08:08:19;;;;;;;1.10;0.70;;;19.00;35.70;;;;;;5095804;28;20020;-65
2021/05/02 08:10:44;;;;;;;1.85;0.80;;;19.00;35.80;;;;;;5095213;28;20032;-65
2021/05/02 08:13:10;;;;;;;2.83;1.10;;;19.00;35.80;;;;;;5095542;28;20033;-64
2021/05/02 08:15:36;;;;;;;3.70;1.17;;;19.00;35.80;;;;;;5095227;28;20024;-65
2021/05/02 08:18:01;;;;;;;2.42;0.90;;;18.90;35.80;;;;;;5095135;28;20016;-65
2021/05/02 08:20:28;;;;;;;1.88;0.80;;;19.00;35.80;;;;;;5095141;28;20468;-65
2021/05/02 08:22:54;;;;;;;1.98;0.90;;;19.00;35.70;;;;;;5076412;28;20470;-64
2021/05/02 08:25:20;;;;;;;2.17;1.02;;;19.00;35.70;;;;;;5094723;28;20063;-64
2021/05/02 08:27:47;;;;;;;1.63;0.75;;;19.10;35.70;;;;;;5094069;28;20035;-65
2021/05/02 08:30:13;;;;;;;3.50;1.13;;;19.10;35.70;;;;;;5095626;28;20040;-65
2021/05/02 08:32:39;;;;;;;3.42;0.90;;;19.10;35.60;;;;;;5095359;28;20502;-65
2021/05/02 08:35:05;;;;;;;2.05;0.80;;;19.10;35.60;;;;;;5094008;28;20020;-65
2021/05/02 08:37:31;;;;;;;1.42;0.70;;;19.10;35.60;;;;;;5095045;28;20555;-65
2021/05/02 08:39:57;;;;;;;2.50;0.80;;;19.10;35.60;;;;;;5094793;28;20102;-65
2021/05/02 08:42:22;;;;;;;2.40;0.68;;;19.10;35.60;;;;;;5094536;28;20522;-65
2021/05/02 08:44:48;;;;;;;4.05;0.80;;;19.10;35.60;;;;;;5094218;28;20039;-65
2021/05/02 08:47:14;;;;;;;2.55;0.98;;;19.10;35.70;;;;;;5093414;28;20028;-65
2021/05/02 08:49:42;;;;;;;2.67;0.90;;;19.00;35.80;;;;;;5094751;28;20459;-65
2021/05/02 08:52:08;;;;;;;2.70;0.82;;;19.00;35.80;;;;;;5093271;28;20027;-65
2021/05/02 08:54:33;;;;;;;2.42;1.10;;;19.10;35.80;;;;;;5094277;28;20024;-64
2021/05/02 08:56:59;;;;;;;2.40;1.05;;;19.00;35.80;;;;;;5094805;28;20028;-65
2021/05/02 08:59:24;;;;;;;1.83;0.70;;;19.10;35.60;;;;;;5094577;28;20064;-65
2021/05/02 09:01:50;;;;;;;2.75;0.80;;;19.10;35.60;;;;;;5094150;28;20034;-65
2021/05/02 09:04:16;;;;;;;3.60;0.77;;;19.20;35.50;;;;;;5092954;28;20023;-64
2021/05/02 09:06:42;;;;;;;3.83;1.00;;;19.10;35.60;;;;;;5094097;28;20062;-64
2021/05/02 09:09:11;;;;;;;1.98;0.80;;;19.10;35.60;;;;;;5094137;28;20020;-65
2021/05/02 09:11:41;;;;;;;3.10;0.75;;;19.10;35.70;;;;;;5094585;28;20032;-64
2021/05/02 09:14:11;;;;;;;2.10;0.90;;;19.00;35.70;;;;;;5094341;28;20024;-64
2021/05/02 09:16:56;;;;;;;2.53;1.00;;;19.00;35.70;;;;;;5094413;28;20084;-65
2021/05/02 09:19:26;;;;;;;1.98;0.82;;;19.10;35.70;;;;;;5094579;28;20082;-65
2021/05/02 09:21:53;;;;;;;1.42;0.70;;;19.00;35.70;;;;;;5094290;28;20024;-65
2021/05/02 09:24:31;;;;;;;1.85;0.80;;;19.10;35.60;;;;;;5093695;28;20519;-65
2021/05/02 09:27:11;;;;;;;2.88;0.90;;;19.10;35.60;;;;;;5093944;28;20028;-65
2021/05/02 09:29:37;;;;;;;3.92;0.88;;;19.10;35.60;;;;;;5094325;28;20044;-64
2021/05/02 09:32:04;;;;;;;2.45;0.80;;;19.10;35.60;;;;;;5094070;28;20106;-64
2021/05/02 09:34:31;;;;;;;1.98;0.77;;;19.10;35.60;;;;;;5093916;28;20020;-64
2021/05/02 09:37:06;;;;;;;3.00;0.75;;;19.20;35.60;;;;;;5093636;28;20031;-65
2021/05/02 09:39:50;;;;;;;2.83;0.93;;;19.20;35.50;;;;;;5093138;28;20027;-66
2021/05/02 09:42:16;;;;;;;3.65;0.90;;;19.20;35.50;;;;;;5093024;28;20028;-68
2021/05/02 09:44:42;;;;;;;2.13;0.88;;;19.20;35.60;;;;;;5092982;28;20109;-65
2021/05/02 09:47:37;;;;;;;1.80;0.90;;;19.20;35.50;;;;;;5093226;28;20066;-65
2021/05/02 09:50:22;;;;;;;1.90;0.90;;;19.30;35.50;;;;;;5092871;28;20039;-65
2021/05/02 09:53:02;;;;;;;2.08;0.60;;;19.30;35.40;;;;;;5093004;28;20384;-65
2021/05/02 09:55:32;;;;;;;2.50;0.75;;;19.20;35.50;;;;;;5092319;28;20020;-65
2021/05/02 09:58:13;;;;;;;1.35;0.68;;;19.20;35.50;;;;;;5093166;28;20020;-65
2021/05/02 10:00:42;;;;;;;1.88;0.90;;;19.20;35.50;;;;;;5092875;28;20024;-65
2021/05/02 10:03:13;;;;;;;2.72;0.80;;;19.20;35.50;;;;;;5092859;28;20073;-65
2021/05/02 10:06:00;;;;;;;1.25;0.60;;;19.20;35.60;;;;;;5092799;28;20039;-65
2021/05/02 10:08:27;;;;;;;3.92;0.88;;;19.20;35.60;;;;;;5092830;28;20022;-65
2021/05/02 10:10:54;;;;;;;2.70;1.02;;;19.20;35.60;;;;;;5092884;28;20063;-65
2021/05/02 10:13:20;;;;;;;3.08;0.80;;;19.20;35.60;;;;;;5091482;28;20024;-65
2021/05/02 10:15:45;;;;;;;2.92;0.60;;;19.20;35.60;;;;;;5091430;28;20027;-65
2021/05/02 10:18:11;;;;;;;2.78;0.80;;;19.20;35.60;;;;;;5092659;28;20486;-65
2021/05/02 10:20:37;;;;;;;1.67;0.82;;;19.20;35.60;;;;;;5092827;28;20485;-65
2021/05/02 10:23:03;;;;;;;2.00;0.80;;;19.10;35.60;;;;;;5093210;28;20045;-65
2021/05/02 10:25:29;;;;;;;2.67;0.80;;;19.10;35.60;;;;;;5093302;28;20028;-65
2021/05/02 10:27:55;;;;;;;1.75;0.82;;;19.10;35.60;;;;;;5093226;28;20035;-65
2021/05/02 10:30:39;;;;;;;1.45;0.73;;;19.20;35.60;;;;;;5093340;28;20523;-65
2021/05/02 10:33:09;;;;;;;1.87;0.67;;;19.10;35.50;;;;;;5093691;28;20047;-65
2021/05/02 10:36:03;;;;;;;3.40;0.80;;;19.10;35.50;;;;;;5093604;28;20024;-65
2021/05/02 10:38:47;;;;;;;1.63;0.77;;;19.20;35.50;;;;;;5091451;28;20210;-64
2021/05/02 10:41:33;;;;;;;2.67;0.93;;;19.30;35.50;;;;;;5091996;28;20016;-65
2021/05/02 10:44:05;;;;;;;1.83;0.70;;;19.20;35.40;;;;;;5093099;28;20024;-65
2021/05/02 10:46:57;;;;;;;2.58;1.00;;;19.20;35.40;;;;;;5093076;28;20028;-65
2021/05/02 10:49:23;;;;;;;8.48;1.25;;;19.20;35.40;;;;;;5092953;28;20490;-65
2021/05/02 10:51:53;;;;;;;1.60;0.73;;;19.20;35.30;;;;;;5093064;28;20024;-64
2021/05/02 10:54:43;;;;;;;2.10;0.95;;;19.30;35.30;;;;;;5092990;28;20024;-65
2021/05/02 10:57:28;;;;;;;1.98;0.77;;;19.30;35.30;;;;;;5085136;28;20047;-64
2021/05/02 11:00:07;;;;;;;2.67;1.02;;;19.40;35.20;;;;;;5092913;28;20155;-65
2021/05/02 11:02:39;;;;;;;1.60;0.77;;;19.40;35.20;;;;;;5092793;28;20021;-65
2021/05/02 11:05:06;;;;;;;2.85;0.90;;;19.40;35.20;;;;;;5092863;28;20605;-65
2021/05/02 11:07:39;;;;;;;2.78;0.82;;;19.40;35.20;;;;;;5095477;28;20019;-65
2021/05/02 11:10:18;;;;;;;1.75;0.98;;;19.30;35.30;;;;;;5096525;28;20036;-65
2021/05/02 11:12:46;;;;;;;1.65;0.60;;;19.30;35.30;;;;;;5096563;28;20031;-65
2021/05/02 11:15:31;;;;;;;3.33;0.98;;;19.30;35.40;;;;;;5096303;28;20062;-66
2021/05/02 11:17:56;;;;;;;;;;;19.30;35.40;;;;;;5096755;28;20024;-64
2021/05/02 11:20:53;;;;;;;2.97;0.93;;;19.30;35.40;;;;;;5096242;28;20249;-64
2021/05/02 11:24:00;;;;;;;2.22;0.70;;;19.30;35.30;;;;;;5094543;28;20459;-65
2021/05/02 11:27:04;;;;;;;2.15;0.80;;;19.30;35.20;;;;;;5096415;28;20022;-65
2021/05/02 11:29:46;;;;;;;2.17;0.60;;;19.30;35.20;;;;;;5097295;28;20036;-64
2021/05/02 11:32:12;;;;;;;2.17;0.82;;;19.30;35.20;;;;;;5096859;28;20445;-65
2021/05/02 11:34:52;;;;;;;2.70;0.88;;;19.30;35.20;;;;;;5095903;28;20048;-64
2021/05/02 11:37:37;;;;;;;2.65;0.77;;;19.30;35.30;;;;;;5095872;28;20150;-65
2021/05/02 11:40:28;;;;;;;1.25;0.50;;;19.30;35.30;;;;;;5096067;28;20028;-64
2021/05/02 11:43:00;;;;;;;1.58;0.85;;;19.20;35.30;;;;;;5095622;28;20026;-65
2021/05/02 11:45:31;;;;;;;1.80;0.90;;;19.30;35.30;;;;;;5095666;28;20027;-64
2021/05/02 11:47:58;;;;;;;1.67;0.82;;;19.30;35.30;;;;;;5095806;28;20023;-64
2021/05/02 11:50:24;;;;;;;0.80;0.60;;;19.30;35.30;;;;;;5095770;28;20024;-64
2021/05/02 11:52:52;;;;;;;2.17;0.80;;;19.30;35.20;;;;;;5095821;28;20080;-64
2021/05/02 11:55:38;;;;;;;1.58;0.70;;;19.30;35.20;;;;;;5095554;28;20360;-64
2021/05/02 11:58:14;;;;;;;1.95;0.57;;;19.30;35.20;;;;;;5095715;28;20475;-64
2021/05/02 12:00:47;;;;;;;1.98;0.50;;;19.40;35.20;;;;;;5095601;28;20024;-64
2021/05/02 12:03:33;;;;;;;2.77;0.90;;;19.30;35.10;;;;;;5095840;28;20020;-64
2021/05/02 12:05:59;;;;;;;1.48;0.60;;;19.30;35.10;;;;;;5095639;28;20024;-63
2021/05/02 12:08:25;;;;;;;1.83;0.82;;;19.30;35.10;;;;;;5095525;28;20036;-64
2021/05/02 12:10:52;;;;;;;1.77;0.70;;;19.40;35.10;;;;;;5095051;28;20135;-63
2021/05/02 12:13:35;;;;;;;1.92;0.70;;;19.40;35.10;;;;;;5095141;28;20032;-63
2021/05/02 12:16:38;;;;;;;0.90;0.55;;;19.30;35.10;;;;;;5094899;28;20464;-63
2021/05/02 12:19:07;;;;;;;1.40;0.60;;;19.30;35.10;;;;;;5061077;28;20069;-63
2021/05/02 12:21:41;;;;;;;1.20;0.68;;;19.30;35.20;;;;;;5099302;28;20028;-64
2021/05/02 12:24:18;;;;;;;1.35;0.65;;;19.30;35.20;;;;;;5095009;28;20491;-63
2021/05/02 12:26:45;;;;;;;1.85;0.70;;;19.30;35.20;;;;;;5094880;28;20036;-63
2021/05/02 12:29:24;;;;;;;1.90;0.80;;;19.20;35.20;;;;;;5093307;28;20395;-64
2021/05/02 12:32:11;;;;;;;1.33;0.70;;;19.20;35.20;;;;;;5095415;28;20047;-64
2021/05/02 12:34:41;;;;;;;2.17;0.93;;;19.30;35.20;;;;;;5095231;28;20024;-63
2021/05/02 12:37:16;;;;;;;1.15;0.60;;;19.30;35.10;;;;;;5095260;28;20398;-63
2021/05/02 12:39:42;;;;;;;2.53;0.70;;;19.40;35.00;;;;;;5094977;28;20024;-64
2021/05/02 12:42:08;;;;;;;1.10;0.60;;;19.40;34.90;;;;;;5094774;28;20483;-63
2021/05/02 12:44:35;;;;;;;1.65;0.70;;;19.40;34.90;;;;;;5094593;28;20482;-64
2021/05/02 12:47:19;;;;;;;0.82;0.50;;;19.40;34.90;;;;;;5094505;28;20028;-64
2021/05/02 12:50:04;;;;;;;1.23;0.50;;;19.40;34.90;;;;;;5094830;28;20032;-64
2021/05/02 12:52:36;;;;;;;1.95;0.82;;;19.40;34.90;;;;;;5094358;28;20027;-65
2021/05/02 12:55:25;;;;;;;2.63;0.60;;;19.40;34.90;;;;;;5094483;28;20024;-65
2021/05/02 12:57:52;;;;;;;2.25;0.70;;;19.40;34.90;;;;;;5094221;28;20027;-64
2021/05/02 13:00:21;;;;;;;1.77;0.68;;;19.40;34.90;;;;;;5094589;28;20491;-64